Orbital elements of TANSEI-3
| Launched | 18 February 1977 |
| Flight ended | – |
| Launch site | Uchinoura Space Center (Fomerly Kagoshima Space Center-University of Tokyo, Japan) |
| Owner | Japan |
| NORAD ID | 9841 |
| Alternative names |
MS-T3 |
| Date fetched |
Epoch osculation |
Inc. [°] |
Ecc. | RA asc node [hr] |
Arg Peri. [°] |
Mean anom [°] |
Mean motion [rev/day] |
Abs. mag |
| Date fetched |
Epoch osculation |
Inc. [°] |
Ecc. | RA asc node [hr] |
Arg Peri. [°] |
Mean anom [°] |
Mean motion [rev/day] |
Abs. mag |
| 2026 May 01 17:56 | 2026 Apr 30 08:33:29 | 65.7603 | 0.17348 | 18.1572 | 271.3099 | 69.0649 | 10.73916 | 9.243 |
| 2026 Apr 30 17:56 | 2026 Apr 30 08:33:29 | 65.7603 | 0.17348 | 18.1572 | 271.3099 | 69.0649 | 10.73916 | 9.243 |
| 2026 Apr 29 17:57 | 2026 Apr 24 11:45:18 | 65.7602 | 0.17350 | 18.7362 | 272.9677 | 69.0649 | 10.73916 | 9.243 |
| 2026 Apr 28 17:56 | 2026 Apr 24 11:45:18 | 65.7602 | 0.17350 | 18.7362 | 272.9677 | 69.0649 | 10.73916 | 9.243 |
| 2026 Apr 27 17:58 | 2026 Apr 24 11:45:18 | 65.7602 | 0.17350 | 18.7362 | 272.9677 | 69.0649 | 10.73916 | 9.243 |
| 2026 Apr 26 17:58 | 2026 Apr 24 11:45:18 | 65.7602 | 0.17350 | 18.7362 | 272.9677 | 69.0649 | 10.73916 | 9.243 |
| 2026 Apr 25 17:58 | 2026 Apr 24 11:45:18 | 65.7602 | 0.17350 | 18.7362 | 272.9677 | 69.0649 | 10.73916 | 9.243 |
| 2026 Apr 24 17:59 | 2026 Apr 24 11:45:18 | 65.7602 | 0.17350 | 18.7362 | 272.9677 | 69.0649 | 10.73916 | 9.243 |
| 2026 Apr 23 17:57 | 2026 Apr 19 04:21:43 | 65.7603 | 0.17352 | 19.2601 | 274.4675 | 69.0649 | 10.73916 | 9.243 |
| 2026 Apr 22 17:57 | 2026 Apr 19 04:21:43 | 65.7603 | 0.17352 | 19.2601 | 274.4675 | 69.0649 | 10.73916 | 9.243 |
| 2026 Apr 21 17:57 | 2026 Apr 19 04:21:43 | 65.7603 | 0.17352 | 19.2601 | 274.4675 | 69.0649 | 10.73916 | 9.243 |
| 2026 Apr 20 17:57 | 2026 Apr 19 04:21:43 | 65.7603 | 0.17352 | 19.2601 | 274.4675 | 69.0649 | 10.73916 | 9.243 |
| 2026 Apr 19 17:58 | 2026 Apr 19 04:21:43 | 65.7603 | 0.17352 | 19.2601 | 274.4675 | 69.0649 | 10.73916 | 9.243 |
| 2026 Apr 18 17:56 | 2026 Apr 13 05:19:27 | 65.7597 | 0.17353 | 19.8483 | 276.1519 | 69.0649 | 10.73916 | 9.243 |
| 2026 Apr 16 17:57 | 2026 Apr 13 05:19:27 | 65.7597 | 0.17353 | 19.8483 | 276.1519 | 69.0649 | 10.73916 | 9.243 |
| 2026 Apr 14 17:57 | 2026 Apr 13 05:19:27 | 65.7597 | 0.17353 | 19.8483 | 276.1519 | 69.0649 | 10.73916 | 9.243 |
| 2026 Apr 13 17:57 | 2026 Apr 13 05:19:27 | 65.7597 | 0.17353 | 19.8483 | 276.1519 | 69.0649 | 10.73916 | 9.243 |
| 2026 Apr 12 17:57 | 2026 Apr 08 13:34:33 | 65.7615 | 0.17353 | 20.3079 | 277.4671 | 69.0649 | 10.73916 | 9.243 |
| 2026 Apr 11 17:57 | 2026 Apr 08 13:34:33 | 65.7615 | 0.17353 | 20.3079 | 277.4671 | 69.0649 | 10.73916 | 9.243 |
| 2026 Apr 10 17:58 | 2026 Apr 08 13:34:33 | 65.7615 | 0.17353 | 20.3079 | 277.4671 | 69.0649 | 10.73916 | 9.243 |
| 2026 Apr 09 18:01 | 2026 Apr 08 13:34:33 | 65.7615 | 0.17353 | 20.3079 | 277.4671 | 69.0649 | 10.73916 | 9.243 |
| 2026 Apr 08 17:57 | 2026 Apr 08 13:34:33 | 65.7615 | 0.17353 | 20.3079 | 277.4671 | 69.0649 | 10.73916 | 9.243 |
| 2026 Apr 07 17:57 | 2026 Apr 01 20:39:30 | 65.7629 | 0.17353 | 20.9695 | 279.3639 | 69.0649 | 10.73916 | 9.243 |
| 2026 Apr 06 17:57 | 2026 Apr 01 20:39:30 | 65.7629 | 0.17353 | 20.9695 | 279.3639 | 69.0649 | 10.73916 | 9.243 |
| 2026 Apr 05 17:56 | 2026 Apr 01 20:39:30 | 65.7629 | 0.17353 | 20.9695 | 279.3639 | 69.0649 | 10.73916 | 9.243 |
| 2026 Apr 04 17:57 | 2026 Apr 01 20:39:30 | 65.7629 | 0.17353 | 20.9695 | 279.3639 | 69.0649 | 10.73916 | 9.243 |